Unbenanntes Dokument
Flugplatz Bielefeld Platzwetter

 

Aktuelles Platzwetter am Flugplatz Bielefeld EDLI

22.06.18 ,07:17 Uhr

METAR EDLI 220717Z 29010KT 9999 ///017 ///047 09/09 Q1021

 

Windwerte

 

Wolkenuntergrenzen

Wind aktuell:310 ° mit 11 kt
Wind 10 min Extrem:
270 ° bis 330 ° mit 6 kt bis 16 kt
Seitenwindkomponente: -2.6 kt
Wolkengrenze 1: 1700 ft
Wolkengrenze 2: 4700 ft
Wolkengrenze 3:

Webcam

Temperatur

       

Sichtweite:

10.000 Meter

9.9 °C
Taupunkt: 9.9 °C
Luftfeuchtigkeit: 99 %

Luftdruck:

QNH: 1021 hPa (30.15 in Hg)
QFE: 1005 hPa (29.68 in Hg)

Diese Daten werden automatisch ermittelt bzw. übertragen und sind nicht geprüft. Für die Richtigkeit wird daher keine Gewähr übernommen. Sie ersetzen im übrigen nicht die Flugwetterberatung. Alle Zeitangaben beziehen sich auf UTC. Die Seite wird einmal die Minute aktualisiert! Sollten Sie ein ältere Seite haben, so drücken Sie bitte auf den Reload Button Ihres Browsers!